sensor_id;sensor_type;location;lat;lon;timestamp;temperature;humidity
7341;DHT22;6870;50.944;6.932;2023-08-07T00:00:19;21.60;51.30
7341;DHT22;6870;50.944;6.932;2023-08-07T00:02:47;21.90;51.60
7341;DHT22;6870;50.944;6.932;2023-08-07T00:05:15;21.90;51.20
7341;DHT22;6870;50.944;6.932;2023-08-07T00:07:45;22.00;51.70
7341;DHT22;6870;50.944;6.932;2023-08-07T00:10:13;21.80;51.00
7341;DHT22;6870;50.944;6.932;2023-08-07T00:12:41;22.20;52.00
7341;DHT22;6870;50.944;6.932;2023-08-07T00:15:10;21.70;51.30
7341;DHT22;6870;50.944;6.932;2023-08-07T00:17:38;21.70;51.10
7341;DHT22;6870;50.944;6.932;2023-08-07T00:20:07;21.60;51.30
7341;DHT22;6870;50.944;6.932;2023-08-07T00:22:35;21.90;51.50
7341;DHT22;6870;50.944;6.932;2023-08-07T00:25:05;21.80;50.90
7341;DHT22;6870;50.944;6.932;2023-08-07T00:27:33;21.70;51.30
7341;DHT22;6870;50.944;6.932;2023-08-07T00:30:02;21.80;51.10
7341;DHT22;6870;50.944;6.932;2023-08-07T00:32:30;21.80;51.50
7341;DHT22;6870;50.944;6.932;2023-08-07T00:34:58;21.90;51.00
7341;DHT22;6870;50.944;6.932;2023-08-07T00:37:26;21.70;51.60
7341;DHT22;6870;50.944;6.932;2023-08-07T00:39:54;21.90;51.80
7341;DHT22;6870;50.944;6.932;2023-08-07T00:42:23;21.60;51.50
7341;DHT22;6870;50.944;6.932;2023-08-07T00:44:51;21.80;51.80
7341;DHT22;6870;50.944;6.932;2023-08-07T00:47:20;22.00;52.00
7341;DHT22;6870;50.944;6.932;2023-08-07T00:49:49;22.00;52.00
7341;DHT22;6870;50.944;6.932;2023-08-07T00:52:17;21.60;51.20
7341;DHT22;6870;50.944;6.932;2023-08-07T00:54:46;21.70;51.70
7341;DHT22;6870;50.944;6.932;2023-08-07T00:57:15;21.80;51.80
7341;DHT22;6870;50.944;6.932;2023-08-07T00:59:44;21.50;51.60
7341;DHT22;6870;50.944;6.932;2023-08-07T01:02:13;21.90;51.20
7341;DHT22;6870;50.944;6.932;2023-08-07T01:04:42;21.70;51.60
7341;DHT22;6870;50.944;6.932;2023-08-07T01:07:10;21.60;51.60
7341;DHT22;6870;50.944;6.932;2023-08-07T01:09:38;21.70;51.60
7341;DHT22;6870;50.944;6.932;2023-08-07T01:12:10;21.90;51.80
7341;DHT22;6870;50.944;6.932;2023-08-07T01:14:51;21.90;51.80
7341;DHT22;6870;50.944;6.932;2023-08-07T01:17:22;21.80;51.70
7341;DHT22;6870;50.944;6.932;2023-08-07T01:19:51;21.70;51.60
7341;DHT22;6870;50.944;6.932;2023-08-07T01:22:21;21.80;51.20
7341;DHT22;6870;50.944;6.932;2023-08-07T01:24:50;21.80;51.80
7341;DHT22;6870;50.944;6.932;2023-08-07T01:27:30;22.20;51.50
7341;DHT22;6870;50.944;6.932;2023-08-07T01:30:09;21.70;51.70
7341;DHT22;6870;50.944;6.932;2023-08-07T01:32:49;21.60;51.60
7341;DHT22;6870;50.944;6.932;2023-08-07T01:35:23;21.80;51.70
7341;DHT22;6870;50.944;6.932;2023-08-07T01:37:59;21.70;51.00
7341;DHT22;6870;50.944;6.932;2023-08-07T01:40:28;21.90;51.80
7341;DHT22;6870;50.944;6.932;2023-08-07T01:42:56;21.90;51.20
7341;DHT22;6870;50.944;6.932;2023-08-07T01:45:26;21.60;51.50
7341;DHT22;6870;50.944;6.932;2023-08-07T01:47:55;21.90;51.70
7341;DHT22;6870;50.944;6.932;2023-08-07T01:50:24;21.90;51.70
7341;DHT22;6870;50.944;6.932;2023-08-07T01:52:52;22.00;51.80
7341;DHT22;6870;50.944;6.932;2023-08-07T01:55:23;21.60;51.30
7341;DHT22;6870;50.944;6.932;2023-08-07T01:57:51;21.80;51.20
7341;DHT22;6870;50.944;6.932;2023-08-07T02:00:21;21.70;51.50
7341;DHT22;6870;50.944;6.932;2023-08-07T02:02:49;22.10;51.30
7341;DHT22;6870;50.944;6.932;2023-08-07T02:05:18;21.80;51.50
7341;DHT22;6870;50.944;6.932;2023-08-07T02:07:46;21.60;51.40
7341;DHT22;6870;50.944;6.932;2023-08-07T02:10:14;21.50;51.00
7341;DHT22;6870;50.944;6.932;2023-08-07T02:12:43;22.00;51.80
7341;DHT22;6870;50.944;6.932;2023-08-07T02:15:11;21.50;51.30
7341;DHT22;6870;50.944;6.932;2023-08-07T02:17:39;21.70;51.50
7341;DHT22;6870;50.944;6.932;2023-08-07T02:20:09;21.90;51.00
7341;DHT22;6870;50.944;6.932;2023-08-07T02:22:38;21.60;51.30
7341;DHT22;6870;50.944;6.932;2023-08-07T02:25:07;21.60;50.70
7341;DHT22;6870;50.944;6.932;2023-08-07T02:27:35;21.70;51.20
7341;DHT22;6870;50.944;6.932;2023-08-07T02:30:06;21.60;51.30
7341;DHT22;6870;50.944;6.932;2023-08-07T02:32:34;21.60;51.30
7341;DHT22;6870;50.944;6.932;2023-08-07T02:35:03;21.50;50.50
7341;DHT22;6870;50.944;6.932;2023-08-07T02:37:31;21.80;51.40
7341;DHT22;6870;50.944;6.932;2023-08-07T02:39:59;21.70;50.70
7341;DHT22;6870;50.944;6.932;2023-08-07T02:42:27;21.60;51.00
7341;DHT22;6870;50.944;6.932;2023-08-07T02:44:55;21.50;50.80
7341;DHT22;6870;50.944;6.932;2023-08-07T02:47:24;21.60;51.00
7341;DHT22;6870;50.944;6.932;2023-08-07T02:49:52;21.70;50.70
7341;DHT22;6870;50.944;6.932;2023-08-07T02:52:20;21.80;50.90
7341;DHT22;6870;50.944;6.932;2023-08-07T02:54:48;21.70;51.30
7341;DHT22;6870;50.944;6.932;2023-08-07T02:57:16;21.80;50.70
7341;DHT22;6870;50.944;6.932;2023-08-07T02:59:44;21.50;50.70
7341;DHT22;6870;50.944;6.932;2023-08-07T03:02:13;21.70;51.20
7341;DHT22;6870;50.944;6.932;2023-08-07T03:04:42;21.60;51.20
7341;DHT22;6870;50.944;6.932;2023-08-07T03:07:10;21.80;51.20
7341;DHT22;6870;50.944;6.932;2023-08-07T03:09:38;21.80;51.00
7341;DHT22;6870;50.944;6.932;2023-08-07T03:12:06;21.70;51.10
7341;DHT22;6870;50.944;6.932;2023-08-07T03:14:35;21.70;51.40
7341;DHT22;6870;50.944;6.932;2023-08-07T03:17:03;21.80;50.80
7341;DHT22;6870;50.944;6.932;2023-08-07T03:19:32;21.50;51.20
7341;DHT22;6870;50.944;6.932;2023-08-07T03:22:01;21.50;51.20
7341;DHT22;6870;50.944;6.932;2023-08-07T03:24:29;21.40;51.20
7341;DHT22;6870;50.944;6.932;2023-08-07T03:26:57;21.80;52.30
7341;DHT22;6870;50.944;6.932;2023-08-07T03:29:25;21.60;51.30
7341;DHT22;6870;50.944;6.932;2023-08-07T03:31:53;21.60;51.40
7341;DHT22;6870;50.944;6.932;2023-08-07T03:34:22;21.80;51.40
7341;DHT22;6870;50.944;6.932;2023-08-07T03:36:50;21.50;51.30
7341;DHT22;6870;50.944;6.932;2023-08-07T03:39:19;21.40;51.20
7341;DHT22;6870;50.944;6.932;2023-08-07T03:41:47;21.90;51.30
7341;DHT22;6870;50.944;6.932;2023-08-07T03:44:15;21.80;51.60
7341;DHT22;6870;50.944;6.932;2023-08-07T03:46:43;21.60;51.50
7341;DHT22;6870;50.944;6.932;2023-08-07T03:49:11;21.60;50.70
7341;DHT22;6870;50.944;6.932;2023-08-07T03:51:39;21.70;50.90
7341;DHT22;6870;50.944;6.932;2023-08-07T03:54:07;21.90;51.50
7341;DHT22;6870;50.944;6.932;2023-08-07T03:56:36;21.60;51.20
7341;DHT22;6870;50.944;6.932;2023-08-07T03:59:04;21.60;51.20
7341;DHT22;6870;50.944;6.932;2023-08-07T04:01:32;21.70;51.30
7341;DHT22;6870;50.944;6.932;2023-08-07T04:04:00;21.40;50.70
7341;DHT22;6870;50.944;6.932;2023-08-07T04:06:29;21.30;50.20
7341;DHT22;6870;50.944;6.932;2023-08-07T04:08:57;21.60;50.40
7341;DHT22;6870;50.944;6.932;2023-08-07T04:11:25;21.80;51.20
7341;DHT22;6870;50.944;6.932;2023-08-07T04:13:55;21.90;50.60
7341;DHT22;6870;50.944;6.932;2023-08-07T04:16:23;21.70;51.10
7341;DHT22;6870;50.944;6.932;2023-08-07T04:18:51;21.80;51.10
7341;DHT22;6870;50.944;6.932;2023-08-07T04:21:19;21.90;51.10
7341;DHT22;6870;50.944;6.932;2023-08-07T04:23:47;21.80;51.30
7341;DHT22;6870;50.944;6.932;2023-08-07T04:26:15;21.70;51.20
7341;DHT22;6870;50.944;6.932;2023-08-07T04:28:43;21.80;51.00
7341;DHT22;6870;50.944;6.932;2023-08-07T04:31:12;21.70;50.50
7341;DHT22;6870;50.944;6.932;2023-08-07T04:33:40;21.40;50.90
7341;DHT22;6870;50.944;6.932;2023-08-07T04:36:08;21.60;50.50
7341;DHT22;6870;50.944;6.932;2023-08-07T04:38:36;21.90;51.00
7341;DHT22;6870;50.944;6.932;2023-08-07T04:41:06;21.80;50.80
7341;DHT22;6870;50.944;6.932;2023-08-07T04:43:34;21.50;51.20
7341;DHT22;6870;50.944;6.932;2023-08-07T04:46:02;21.70;51.30
7341;DHT22;6870;50.944;6.932;2023-08-07T04:48:31;21.60;51.20
7341;DHT22;6870;50.944;6.932;2023-08-07T04:50:59;21.70;51.20
7341;DHT22;6870;50.944;6.932;2023-08-07T04:53:27;21.60;50.50
7341;DHT22;6870;50.944;6.932;2023-08-07T04:55:55;21.70;50.90
7341;DHT22;6870;50.944;6.932;2023-08-07T04:58:23;21.80;50.80
7341;DHT22;6870;50.944;6.932;2023-08-07T05:00:55;21.60;51.00
7341;DHT22;6870;50.944;6.932;2023-08-07T05:03:23;21.40;51.00
7341;DHT22;6870;50.944;6.932;2023-08-07T05:05:58;21.40;50.70
7341;DHT22;6870;50.944;6.932;2023-08-07T05:08:26;21.60;51.10
7341;DHT22;6870;50.944;6.932;2023-08-07T05:10:54;21.60;51.10
7341;DHT22;6870;50.944;6.932;2023-08-07T05:13:22;21.80;51.20
7341;DHT22;6870;50.944;6.932;2023-08-07T05:15:50;21.70;51.20
7341;DHT22;6870;50.944;6.932;2023-08-07T05:18:19;21.40;50.60
7341;DHT22;6870;50.944;6.932;2023-08-07T05:20:47;21.80;50.70
7341;DHT22;6870;50.944;6.932;2023-08-07T05:23:16;21.90;51.20
7341;DHT22;6870;50.944;6.932;2023-08-07T05:25:45;21.50;50.90
7341;DHT22;6870;50.944;6.932;2023-08-07T05:28:15;21.60;51.10
7341;DHT22;6870;50.944;6.932;2023-08-07T05:30:43;21.80;51.20
7341;DHT22;6870;50.944;6.932;2023-08-07T05:33:12;21.80;50.80
7341;DHT22;6870;50.944;6.932;2023-08-07T05:35:41;21.50;51.70
7341;DHT22;6870;50.944;6.932;2023-08-07T05:38:09;21.80;50.70
7341;DHT22;6870;50.944;6.932;2023-08-07T05:40:39;21.60;51.00
7341;DHT22;6870;50.944;6.932;2023-08-07T05:43:07;21.60;50.70
7341;DHT22;6870;50.944;6.932;2023-08-07T05:45:35;22.00;51.50
7341;DHT22;6870;50.944;6.932;2023-08-07T05:48:04;21.80;51.40
7341;DHT22;6870;50.944;6.932;2023-08-07T05:50:32;21.60;50.80
7341;DHT22;6870;50.944;6.932;2023-08-07T05:53:00;21.60;50.60
7341;DHT22;6870;50.944;6.932;2023-08-07T05:55:28;21.50;50.30
7341;DHT22;6870;50.944;6.932;2023-08-07T05:57:58;21.60;50.40
7341;DHT22;6870;50.944;6.932;2023-08-07T06:00:26;21.80;50.80
7341;DHT22;6870;50.944;6.932;2023-08-07T06:02:55;21.50;50.70
7341;DHT22;6870;50.944;6.932;2023-08-07T06:05:23;21.50;50.90
7341;DHT22;6870;50.944;6.932;2023-08-07T06:07:52;21.60;50.70
7341;DHT22;6870;50.944;6.932;2023-08-07T06:10:20;21.70;50.60
7341;DHT22;6870;50.944;6.932;2023-08-07T06:12:48;21.60;50.60
7341;DHT22;6870;50.944;6.932;2023-08-07T06:15:17;21.80;50.20
7341;DHT22;6870;50.944;6.932;2023-08-07T06:17:45;21.90;49.80
7341;DHT22;6870;50.944;6.932;2023-08-07T06:20:13;21.60;50.00
7341;DHT22;6870;50.944;6.932;2023-08-07T06:22:42;21.40;49.20
7341;DHT22;6870;50.944;6.932;2023-08-07T06:25:10;21.60;49.70
7341;DHT22;6870;50.944;6.932;2023-08-07T06:27:38;21.70;49.20
7341;DHT22;6870;50.944;6.932;2023-08-07T06:30:07;21.70;49.10
7341;DHT22;6870;50.944;6.932;2023-08-07T06:32:37;21.90;50.00
7341;DHT22;6870;50.944;6.932;2023-08-07T06:35:06;21.80;49.80
7341;DHT22;6870;50.944;6.932;2023-08-07T06:37:34;21.40;49.20
7341;DHT22;6870;50.944;6.932;2023-08-07T06:40:02;21.90;50.40
7341;DHT22;6870;50.944;6.932;2023-08-07T06:42:31;21.50;51.10
7341;DHT22;6870;50.944;6.932;2023-08-07T06:44:59;21.90;50.90
7341;DHT22;6870;50.944;6.932;2023-08-07T06:47:27;21.60;50.40
7341;DHT22;6870;50.944;6.932;2023-08-07T06:49:57;21.70;51.60
7341;DHT22;6870;50.944;6.932;2023-08-07T06:52:25;21.50;51.30
7341;DHT22;6870;50.944;6.932;2023-08-07T06:54:53;21.70;51.10
7341;DHT22;6870;50.944;6.932;2023-08-07T06:57:21;21.70;51.30
7341;DHT22;6870;50.944;6.932;2023-08-07T06:59:49;21.50;50.80
7341;DHT22;6870;50.944;6.932;2023-08-07T07:02:17;21.50;50.60
7341;DHT22;6870;50.944;6.932;2023-08-07T07:04:45;21.70;50.60
7341;DHT22;6870;50.944;6.932;2023-08-07T07:07:14;21.60;50.20
7341;DHT22;6870;50.944;6.932;2023-08-07T07:09:42;21.80;50.50
7341;DHT22;6870;50.944;6.932;2023-08-07T07:12:10;21.70;50.30
7341;DHT22;6870;50.944;6.932;2023-08-07T07:14:38;21.60;50.30
7341;DHT22;6870;50.944;6.932;2023-08-07T07:17:06;21.70;50.40
7341;DHT22;6870;50.944;6.932;2023-08-07T07:19:34;21.50;49.60
7341;DHT22;6870;50.944;6.932;2023-08-07T07:22:02;21.40;50.40
7341;DHT22;6870;50.944;6.932;2023-08-07T07:24:32;21.70;50.50
7341;DHT22;6870;50.944;6.932;2023-08-07T07:27:00;21.70;50.60
7341;DHT22;6870;50.944;6.932;2023-08-07T07:29:28;21.70;51.00
7341;DHT22;6870;50.944;6.932;2023-08-07T07:31:56;21.70;50.70
7341;DHT22;6870;50.944;6.932;2023-08-07T07:34:25;21.90;50.80
7341;DHT22;6870;50.944;6.932;2023-08-07T07:36:53;21.70;50.60
7341;DHT22;6870;50.944;6.932;2023-08-07T07:39:21;21.80;50.10
7341;DHT22;6870;50.944;6.932;2023-08-07T07:41:50;21.90;50.60
7341;DHT22;6870;50.944;6.932;2023-08-07T07:44:18;21.60;50.20
7341;DHT22;6870;50.944;6.932;2023-08-07T07:46:46;21.60;50.20
7341;DHT22;6870;50.944;6.932;2023-08-07T07:49:14;21.80;50.00
7341;DHT22;6870;50.944;6.932;2023-08-07T07:51:43;21.60;50.00
7341;DHT22;6870;50.944;6.932;2023-08-07T07:54:11;21.40;49.90
7341;DHT22;6870;50.944;6.932;2023-08-07T07:56:41;21.60;49.60
7341;DHT22;6870;50.944;6.932;2023-08-07T07:59:12;21.60;50.30
7341;DHT22;6870;50.944;6.932;2023-08-07T08:01:40;21.60;50.00
7341;DHT22;6870;50.944;6.932;2023-08-07T08:04:08;21.60;49.70
7341;DHT22;6870;50.944;6.932;2023-08-07T08:06:39;21.70;50.20
7341;DHT22;6870;50.944;6.932;2023-08-07T08:09:07;21.80;50.10
7341;DHT22;6870;50.944;6.932;2023-08-07T08:11:36;21.80;49.40
7341;DHT22;6870;50.944;6.932;2023-08-07T08:14:04;21.70;49.20
7341;DHT22;6870;50.944;6.932;2023-08-07T08:16:33;21.50;49.60
7341;DHT22;6870;50.944;6.932;2023-08-07T08:19:02;21.80;49.80
7341;DHT22;6870;50.944;6.932;2023-08-07T08:21:30;21.80;49.30
7341;DHT22;6870;50.944;6.932;2023-08-07T08:23:59;21.90;49.90
7341;DHT22;6870;50.944;6.932;2023-08-07T08:26:27;21.90;49.70
7341;DHT22;6870;50.944;6.932;2023-08-07T08:28:55;21.80;49.60
7341;DHT22;6870;50.944;6.932;2023-08-07T08:31:24;22.20;49.70
7341;DHT22;6870;50.944;6.932;2023-08-07T08:33:53;21.60;48.70
7341;DHT22;6870;50.944;6.932;2023-08-07T08:36:21;21.90;49.20
7341;DHT22;6870;50.944;6.932;2023-08-07T08:38:49;22.20;48.50
7341;DHT22;6870;50.944;6.932;2023-08-07T08:41:19;22.00;48.90
7341;DHT22;6870;50.944;6.932;2023-08-07T08:43:49;21.90;49.10
7341;DHT22;6870;50.944;6.932;2023-08-07T08:46:19;21.90;49.10
7341;DHT22;6870;50.944;6.932;2023-08-07T08:48:51;21.90;49.00
7341;DHT22;6870;50.944;6.932;2023-08-07T08:51:22;21.70;47.90
7341;DHT22;6870;50.944;6.932;2023-08-07T08:53:52;22.00;49.20
7341;DHT22;6870;50.944;6.932;2023-08-07T08:56:23;21.80;47.90
7341;DHT22;6870;50.944;6.932;2023-08-07T08:58:51;21.70;48.70
7341;DHT22;6870;50.944;6.932;2023-08-07T09:01:20;21.70;48.70
7341;DHT22;6870;50.944;6.932;2023-08-07T09:03:53;22.00;48.90
7341;DHT22;6870;50.944;6.932;2023-08-07T09:06:23;22.00;48.80
7341;DHT22;6870;50.944;6.932;2023-08-07T09:08:53;21.70;48.60
7341;DHT22;6870;50.944;6.932;2023-08-07T09:11:22;21.80;48.40
7341;DHT22;6870;50.944;6.932;2023-08-07T09:13:51;22.00;48.30
7341;DHT22;6870;50.944;6.932;2023-08-07T09:16:24;22.20;48.50
7341;DHT22;6870;50.944;6.932;2023-08-07T09:18:55;21.90;48.00
7341;DHT22;6870;50.944;6.932;2023-08-07T09:21:23;22.20;47.90
7341;DHT22;6870;50.944;6.932;2023-08-07T09:23:51;21.80;46.70
7341;DHT22;6870;50.944;6.932;2023-08-07T09:26:21;22.10;47.40
7341;DHT22;6870;50.944;6.932;2023-08-07T09:28:52;21.80;47.60
7341;DHT22;6870;50.944;6.932;2023-08-07T09:31:21;22.20;46.70
7341;DHT22;6870;50.944;6.932;2023-08-07T09:33:49;21.90;47.60
7341;DHT22;6870;50.944;6.932;2023-08-07T09:36:18;21.90;47.40
7341;DHT22;6870;50.944;6.932;2023-08-07T09:38:49;22.00;47.00
7341;DHT22;6870;50.944;6.932;2023-08-07T09:41:18;22.20;47.10
7341;DHT22;6870;50.944;6.932;2023-08-07T09:43:47;22.30;46.80
7341;DHT22;6870;50.944;6.932;2023-08-07T09:46:17;22.70;47.30
7341;DHT22;6870;50.944;6.932;2023-08-07T09:48:46;22.60;47.20
7341;DHT22;6870;50.944;6.932;2023-08-07T09:51:14;22.50;46.70
7341;DHT22;6870;50.944;6.932;2023-08-07T09:53:44;22.60;45.80
7341;DHT22;6870;50.944;6.932;2023-08-07T09:56:12;22.80;45.70
7341;DHT22;6870;50.944;6.932;2023-08-07T09:58:46;22.50;45.50
7341;DHT22;6870;50.944;6.932;2023-08-07T10:01:16;22.90;45.90
7341;DHT22;6870;50.944;6.932;2023-08-07T10:03:45;22.70;45.50
7341;DHT22;6870;50.944;6.932;2023-08-07T10:06:14;22.80;45.20
7341;DHT22;6870;50.944;6.932;2023-08-07T10:08:44;22.70;45.20
7341;DHT22;6870;50.944;6.932;2023-08-07T10:11:14;22.90;45.20
7341;DHT22;6870;50.944;6.932;2023-08-07T10:13:45;22.70;44.50
7341;DHT22;6870;50.944;6.932;2023-08-07T10:16:14;23.00;44.00
7341;DHT22;6870;50.944;6.932;2023-08-07T10:18:42;22.80;43.50
7341;DHT22;6870;50.944;6.932;2023-08-07T10:21:10;23.00;43.50
7341;DHT22;6870;50.944;6.932;2023-08-07T10:23:40;22.90;43.00
7341;DHT22;6870;50.944;6.932;2023-08-07T10:26:11;23.00;43.20
7341;DHT22;6870;50.944;6.932;2023-08-07T10:28:41;23.00;43.00
7341;DHT22;6870;50.944;6.932;2023-08-07T10:31:11;23.10;42.80
7341;DHT22;6870;50.944;6.932;2023-08-07T10:33:41;23.40;42.40
7341;DHT22;6870;50.944;6.932;2023-08-07T10:36:10;23.90;41.70
7341;DHT22;6870;50.944;6.932;2023-08-07T10:38:39;23.30;40.80
7341;DHT22;6870;50.944;6.932;2023-08-07T10:41:10;23.90;40.40
7341;DHT22;6870;50.944;6.932;2023-08-07T10:43:41;23.90;39.90
7341;DHT22;6870;50.944;6.932;2023-08-07T10:46:12;24.10;40.10
7341;DHT22;6870;50.944;6.932;2023-08-07T10:48:41;24.00;38.90
7341;DHT22;6870;50.944;6.932;2023-08-07T10:51:12;24.00;38.90
7341;DHT22;6870;50.944;6.932;2023-08-07T10:53:42;24.20;38.40
7341;DHT22;6870;50.944;6.932;2023-08-07T10:56:17;24.10;38.30
7341;DHT22;6870;50.944;6.932;2023-08-07T10:58:50;24.00;37.00
7341;DHT22;6870;50.944;6.932;2023-08-07T11:01:21;24.20;37.30
7341;DHT22;6870;50.944;6.932;2023-08-07T11:03:51;24.10;37.50
7341;DHT22;6870;50.944;6.932;2023-08-07T11:06:24;24.40;37.30
7341;DHT22;6870;50.944;6.932;2023-08-07T11:08:53;24.10;35.90
7341;DHT22;6870;50.944;6.932;2023-08-07T11:11:23;24.30;37.00
7341;DHT22;6870;50.944;6.932;2023-08-07T11:13:51;24.30;36.30
7341;DHT22;6870;50.944;6.932;2023-08-07T11:16:19;24.40;36.30
7341;DHT22;6870;50.944;6.932;2023-08-07T11:18:48;24.30;36.30
7341;DHT22;6870;50.944;6.932;2023-08-07T11:21:17;24.40;36.70
7341;DHT22;6870;50.944;6.932;2023-08-07T11:23:46;24.10;36.00
7341;DHT22;6870;50.944;6.932;2023-08-07T11:26:14;24.70;36.40
7341;DHT22;6870;50.944;6.932;2023-08-07T11:28:43;24.40;36.00
7341;DHT22;6870;50.944;6.932;2023-08-07T11:31:12;24.50;36.10
7341;DHT22;6870;50.944;6.932;2023-08-07T11:33:40;24.50;36.00
7341;DHT22;6870;50.944;6.932;2023-08-07T11:36:12;24.30;27.80
7341;DHT22;6870;50.944;6.932;2023-08-07T11:38:41;24.20;28.90
7341;DHT22;6870;50.944;6.932;2023-08-07T11:41:12;24.10;28.80
7341;DHT22;6870;50.944;6.932;2023-08-07T11:43:41;24.20;29.70
7341;DHT22;6870;50.944;6.932;2023-08-07T11:46:14;24.10;29.50
7341;DHT22;6870;50.944;6.932;2023-08-07T11:48:43;24.10;30.20
7341;DHT22;6870;50.944;6.932;2023-08-07T11:51:12;24.10;30.00
7341;DHT22;6870;50.944;6.932;2023-08-07T11:53:41;24.10;30.40
7341;DHT22;6870;50.944;6.932;2023-08-07T11:56:10;24.30;31.20
7341;DHT22;6870;50.944;6.932;2023-08-07T11:58:42;24.30;31.70
7341;DHT22;6870;50.944;6.932;2023-08-07T12:01:15;24.60;32.40
7341;DHT22;6870;50.944;6.932;2023-08-07T12:03:51;24.10;32.20
7341;DHT22;6870;50.944;6.932;2023-08-07T12:06:21;24.20;32.30
7341;DHT22;6870;50.944;6.932;2023-08-07T12:08:50;24.30;32.80
7341;DHT22;6870;50.944;6.932;2023-08-07T12:11:22;24.30;32.80
7341;DHT22;6870;50.944;6.932;2023-08-07T12:13:52;24.20;31.70
7341;DHT22;6870;50.944;6.932;2023-08-07T12:16:20;24.60;31.80
7341;DHT22;6870;50.944;6.932;2023-08-07T12:18:49;24.10;31.60
7341;DHT22;6870;50.944;6.932;2023-08-07T12:21:20;24.30;32.70
7341;DHT22;6870;50.944;6.932;2023-08-07T12:23:51;24.30;32.90
7341;DHT22;6870;50.944;6.932;2023-08-07T12:26:22;24.50;33.20
7341;DHT22;6870;50.944;6.932;2023-08-07T12:28:52;24.20;32.60
7341;DHT22;6870;50.944;6.932;2023-08-07T12:31:20;24.40;32.60
7341;DHT22;6870;50.944;6.932;2023-08-07T12:33:49;24.30;32.70
7341;DHT22;6870;50.944;6.932;2023-08-07T12:36:17;24.20;32.90
7341;DHT22;6870;50.944;6.932;2023-08-07T12:38:46;24.50;33.10
7341;DHT22;6870;50.944;6.932;2023-08-07T12:41:14;24.60;33.20
7341;DHT22;6870;50.944;6.932;2023-08-07T12:43:45;24.40;32.30
7341;DHT22;6870;50.944;6.932;2023-08-07T12:46:15;24.70;32.10
7341;DHT22;6870;50.944;6.932;2023-08-07T12:48:46;24.50;32.50
7341;DHT22;6870;50.944;6.932;2023-08-07T12:51:14;24.80;32.30
7341;DHT22;6870;50.944;6.932;2023-08-07T12:53:42;24.50;32.10
7341;DHT22;6870;50.944;6.932;2023-08-07T12:56:11;24.70;32.60
7341;DHT22;6870;50.944;6.932;2023-08-07T12:58:39;24.50;33.00
7341;DHT22;6870;50.944;6.932;2023-08-07T13:01:09;24.80;33.30
7341;DHT22;6870;50.944;6.932;2023-08-07T13:03:39;24.50;32.50
7341;DHT22;6870;50.944;6.932;2023-08-07T13:06:07;24.50;33.00
7341;DHT22;6870;50.944;6.932;2023-08-07T13:08:35;24.70;32.60
7341;DHT22;6870;50.944;6.932;2023-08-07T13:11:04;24.70;32.70
7341;DHT22;6870;50.944;6.932;2023-08-07T13:13:32;24.80;33.20
7341;DHT22;6870;50.944;6.932;2023-08-07T13:16:00;24.70;33.40
7341;DHT22;6870;50.944;6.932;2023-08-07T13:18:28;24.50;33.30
7341;DHT22;6870;50.944;6.932;2023-08-07T13:20:58;24.80;33.00
7341;DHT22;6870;50.944;6.932;2023-08-07T13:23:26;24.50;32.60
7341;DHT22;6870;50.944;6.932;2023-08-07T13:25:54;24.80;32.70
7341;DHT22;6870;50.944;6.932;2023-08-07T13:28:22;25.10;32.60
7341;DHT22;6870;50.944;6.932;2023-08-07T13:30:50;24.70;32.30
7341;DHT22;6870;50.944;6.932;2023-08-07T13:33:20;24.90;32.40
7341;DHT22;6870;50.944;6.932;2023-08-07T13:35:49;25.00;32.40
7341;DHT22;6870;50.944;6.932;2023-08-07T13:38:18;24.90;32.50
7341;DHT22;6870;50.944;6.932;2023-08-07T13:40:46;24.70;32.10
7341;DHT22;6870;50.944;6.932;2023-08-07T13:43:14;25.30;32.70
7341;DHT22;6870;50.944;6.932;2023-08-07T13:45:42;24.90;33.10
7341;DHT22;6870;50.944;6.932;2023-08-07T13:48:10;25.30;32.80
7341;DHT22;6870;50.944;6.932;2023-08-07T13:50:38;24.80;32.70
7341;DHT22;6870;50.944;6.932;2023-08-07T13:53:07;25.30;32.90
7341;DHT22;6870;50.944;6.932;2023-08-07T13:55:43;24.80;32.90
7341;DHT22;6870;50.944;6.932;2023-08-07T13:58:11;24.70;32.60
7341;DHT22;6870;50.944;6.932;2023-08-07T14:00:41;24.80;33.20
7341;DHT22;6870;50.944;6.932;2023-08-07T14:03:10;25.20;33.50
7341;DHT22;6870;50.944;6.932;2023-08-07T14:05:40;25.10;33.20
7341;DHT22;6870;50.944;6.932;2023-08-07T14:08:08;24.80;32.50
7341;DHT22;6870;50.944;6.932;2023-08-07T14:10:37;25.00;32.90
7341;DHT22;6870;50.944;6.932;2023-08-07T14:13:10;24.70;32.40
7341;DHT22;6870;50.944;6.932;2023-08-07T14:15:38;25.20;32.50
7341;DHT22;6870;50.944;6.932;2023-08-07T14:18:07;25.10;33.00
7341;DHT22;6870;50.944;6.932;2023-08-07T14:20:35;24.80;33.00
7341;DHT22;6870;50.944;6.932;2023-08-07T14:23:23;24.80;32.80
7341;DHT22;6870;50.944;6.932;2023-08-07T14:25:51;24.80;32.40
7341;DHT22;6870;50.944;6.932;2023-08-07T14:28:21;24.90;33.10
7341;DHT22;6870;50.944;6.932;2023-08-07T14:30:49;25.00;33.60
7341;DHT22;6870;50.944;6.932;2023-08-07T14:33:17;24.80;33.40
7341;DHT22;6870;50.944;6.932;2023-08-07T14:35:45;24.90;33.30
7341;DHT22;6870;50.944;6.932;2023-08-07T14:38:13;24.80;33.10
7341;DHT22;6870;50.944;6.932;2023-08-07T14:40:41;24.70;33.50
7341;DHT22;6870;50.944;6.932;2023-08-07T14:43:09;24.80;33.40
7341;DHT22;6870;50.944;6.932;2023-08-07T14:45:39;25.00;33.50
7341;DHT22;6870;50.944;6.932;2023-08-07T14:48:07;24.80;33.70
7341;DHT22;6870;50.944;6.932;2023-08-07T14:50:35;24.80;33.10
7341;DHT22;6870;50.944;6.932;2023-08-07T14:53:03;24.90;33.40
7341;DHT22;6870;50.944;6.932;2023-08-07T14:55:31;24.70;33.00
7341;DHT22;6870;50.944;6.932;2023-08-07T14:57:59;24.70;32.90
7341;DHT22;6870;50.944;6.932;2023-08-07T15:00:28;24.90;33.10
7341;DHT22;6870;50.944;6.932;2023-08-07T15:02:57;24.90;32.90
7341;DHT22;6870;50.944;6.932;2023-08-07T15:05:26;24.90;33.30
7341;DHT22;6870;50.944;6.932;2023-08-07T15:07:54;25.10;33.40
7341;DHT22;6870;50.944;6.932;2023-08-07T15:10:22;25.20;33.40
7341;DHT22;6870;50.944;6.932;2023-08-07T15:12:50;24.70;33.20
7341;DHT22;6870;50.944;6.932;2023-08-07T15:15:18;24.60;33.20
7341;DHT22;6870;50.944;6.932;2023-08-07T15:17:46;24.70;33.40
7341;DHT22;6870;50.944;6.932;2023-08-07T15:20:15;24.80;33.40
7341;DHT22;6870;50.944;6.932;2023-08-07T15:22:46;24.70;33.60
7341;DHT22;6870;50.944;6.932;2023-08-07T15:25:15;24.70;33.80
7341;DHT22;6870;50.944;6.932;2023-08-07T15:27:43;24.50;33.50
7341;DHT22;6870;50.944;6.932;2023-08-07T15:30:12;24.80;33.50
7341;DHT22;6870;50.944;6.932;2023-08-07T15:32:40;25.20;34.00
7341;DHT22;6870;50.944;6.932;2023-08-07T15:35:08;24.80;33.50
7341;DHT22;6870;50.944;6.932;2023-08-07T15:37:38;24.70;33.80
7341;DHT22;6870;50.944;6.932;2023-08-07T15:40:07;24.70;33.50
7341;DHT22;6870;50.944;6.932;2023-08-07T15:42:36;24.80;33.50
7341;DHT22;6870;50.944;6.932;2023-08-07T15:45:06;24.80;34.00
7341;DHT22;6870;50.944;6.932;2023-08-07T15:47:35;24.50;33.70
7341;DHT22;6870;50.944;6.932;2023-08-07T15:50:03;24.60;33.90
7341;DHT22;6870;50.944;6.932;2023-08-07T15:52:31;25.10;34.10
7341;DHT22;6870;50.944;6.932;2023-08-07T15:55:01;24.50;33.80
7341;DHT22;6870;50.944;6.932;2023-08-07T15:57:29;24.60;33.70
7341;DHT22;6870;50.944;6.932;2023-08-07T15:59:57;24.80;33.60
7341;DHT22;6870;50.944;6.932;2023-08-07T16:02:25;24.90;33.90
7341;DHT22;6870;50.944;6.932;2023-08-07T16:04:53;25.10;33.90
7341;DHT22;6870;50.944;6.932;2023-08-07T16:07:21;24.40;34.00
7341;DHT22;6870;50.944;6.932;2023-08-07T16:09:49;24.80;34.00
7341;DHT22;6870;50.944;6.932;2023-08-07T16:12:19;24.50;34.10